Wednesday, April 25, 2018, 5:02 AM EDT
Back to Local

KDYL, Doylestown Airport

Location: Doylestown, PA, United States Lat: 40.333
Local Time: 5:02 AM EDT ( 9:02 GMT) Lon: -75.117
Time Zone: US/Eastern Elev: 393 ft

Show me the last for .
Show Decoded

2018-04-25 04:33 METAR KDYL 250833Z AUTO VRB03KT 5SM -RA BR OVC005 12/12 A2992 RMK AO2 P0006
                 T01220117 =
2018-04-25 03:54 METAR KDYL 250754Z AUTO VRB03KT 4SM -RA BR OVC004 12/12 A2993 RMK AO2 SLP135
                 P0007 T01170117 =
2018-04-25 02:54 METAR KDYL 250654Z AUTO VRB03KT 5SM -RA BR OVC004 12/11 A2997 RMK AO2 SLP147
                 P0006 T01170111 =
2018-04-25 02:12 METAR KDYL 250612Z AUTO 00000KT 5SM -RA BR OVC004 11/11 A3000 RMK AO2 P0002
                 T01110111 =
2018-04-25 01:54 METAR KDYL 250554Z AUTO VRB03KT 7SM -RA OVC005 11/11 A3001 RMK AO2 SLP163 P0004
                 60016 T01110111 10133 20106 58035 =
2018-04-25 00:54 METAR KDYL 250454Z AUTO VRB04KT 9SM -RA OVC005 11/11 A3006 RMK AO2 CIG 004V008
                 SLP177 P0004 T01110111 401720022 =
2018-04-24 23:54 METAR KDYL 250354Z AUTO 00000KT 7SM -RA BKN008 OVC012 11/11 A3009 RMK AO2 CIG
                 005V010 SLP188 P0005 T01110106 =
2018-04-24 23:42 METAR KDYL 250342Z AUTO 00000KT 7SM -RA BKN008 OVC013 11/10 A3009 RMK AO2 CIG
                 006V010 P0004 T01110100 =
2018-04-24 23:27 METAR KDYL 250327Z AUTO VRB03KT 6SM RA BR BKN014 OVC018 11/10 A3010 RMK AO2
                 P0003 T01060100 =
2018-04-24 22:54 METAR KDYL 250254Z AUTO VRB03KT 10SM -RA BKN019 OVC025 11/10 A3012 RMK AO2
                 RAB0157 SLP198 P0003 60003 T01110100 58019 =
2018-04-24 22:40 METAR KDYL 250240Z AUTO 00000KT 9SM -RA SCT019 BKN028 OVC033 11/09 A3013 RMK AO2
                 RAB0157 P0002 T01110094 =
2018-04-24 21:54 METAR KDYL 250154Z AUTO VRB03KT 10SM SCT047 BKN055 OVC070 12/08 A3014 RMK AO2
                 SLP207 T01220078 =
2018-04-24 20:54 METAR KDYL 250054Z AUTO 00000KT 10SM FEW041 BKN055 OVC110 13/07 A3016 RMK AO2
                 SLP213 T01280072 =
2018-04-24 19:54 METAR KDYL 242354Z AUTO 00000KT 10SM FEW043 SCT060 OVC120 13/07 A3017 RMK AO2
                 SLP218 T01330067 10172 20133 56008 =
2018-04-24 18:54 METAR KDYL 242254Z AUTO 10004KT 10SM SCT040 BKN049 BKN065 14/07 A3018 RMK AO2
                 SLP221 T01440067 =
2018-04-24 17:54 METAR KDYL 242154Z AUTO VRB04KT 10SM BKN044 OVC060 15/06 A3018 RMK AO2 SLP224
                 T01500061 =
2018-04-24 16:54 METAR KDYL 242054Z AUTO VRB05G16KT 10SM FEW048 BKN065 16/06 A3020 RMK AO2 SLP228
                 T01610061 56024 =
2018-04-24 15:54 METAR KDYL 241954Z AUTO 14009G15KT 110V170 10SM SCT048 BKN060 16/06 A3022 RMK
                 AO2 SLP235 T01610061 =
2018-04-24 14:54 METAR KDYL 241854Z AUTO VRB04KT 10SM FEW060 17/06 A3024 RMK AO2 SLP243 T01670061
                 =
2018-04-24 13:54 METAR KDYL 241754Z AUTO 16009G20KT 10SM BKN050 17/06 A3027 RMK AO2 SLP252
                 T01670056 10172 20089 58022 =
2018-04-24 12:54 METAR KDYL 241654Z AUTO 15007G17KT 060V180 10SM BKN050 17/05 A3029 RMK AO2
                 SLP258 T01720050 =
2018-04-24 11:54 METAR KDYL 241554Z AUTO VRB05KT 10SM SCT049 16/05 A3032 RMK AO2 SLP267 T01610050
                 =
2018-04-24 10:54 METAR KDYL 241454Z AUTO 16010KT 10SM SCT043 16/06 A3034 RMK AO2 SLP273 T01610056
                 58015 =
2018-04-24 09:54 METAR KDYL 241354Z AUTO VRB05KT 10SM CLR 13/04 A3035 RMK AO2 SLP279 T01330044 =
2018-04-24 08:54 METAR KDYL 241254Z AUTO VRB04KT 10SM CLR 11/03 A3037 RMK AO2 SLP284 T01110033 =
2018-04-24 07:54 METAR KDYL 241154Z AUTO 00000KT 10SM FEW047 09/02 A3038 RMK AO2 SLP288 T00890017
                 10089 20022 51004 =
2018-04-24 06:54 METAR KDYL 241054Z AUTO 04003KT 10SM CLR 04/M01 A3038 RMK AO2 SLP288 T00441006 =
2018-04-24 05:54 METAR KDYL 240954Z AUTO 00000KT 10SM CLR 02/M01 A3037 RMK AO2 SLP286 T00221011 =

Support USWX by starting your Amazon purchase here.